sensor_id;sensor_type;location;lat;lon;timestamp;temperature;humidity
74792;SHT30;63319;46.046;17.802;2022-12-07T00:00:17;18.42;52.10
74792;SHT30;63319;46.046;17.802;2022-12-07T00:03:20;18.39;52.20
74792;SHT30;63319;46.046;17.802;2022-12-07T00:06:23;18.41;52.11
74792;SHT30;63319;46.046;17.802;2022-12-07T00:09:25;18.41;51.99
74792;SHT30;63319;46.046;17.802;2022-12-07T00:12:28;18.42;51.98
74792;SHT30;63319;46.046;17.802;2022-12-07T00:15:33;18.41;52.36
74792;SHT30;63319;46.046;17.802;2022-12-07T00:18:37;18.42;51.84
74792;SHT30;63319;46.046;17.802;2022-12-07T00:21:40;18.42;51.68
74792;SHT30;63319;46.046;17.802;2022-12-07T00:24:43;18.39;51.83
74792;SHT30;63319;46.046;17.802;2022-12-07T00:27:45;18.41;52.38
74792;SHT30;63319;46.046;17.802;2022-12-07T00:30:48;18.41;51.92
74792;SHT30;63319;46.046;17.802;2022-12-07T00:33:51;18.44;52.20
74792;SHT30;63319;46.046;17.802;2022-12-07T00:36:54;18.42;51.93
74792;SHT30;63319;46.046;17.802;2022-12-07T00:39:56;18.42;51.57
74792;SHT30;63319;46.046;17.802;2022-12-07T00:42:59;18.42;51.55
74792;SHT30;63319;46.046;17.802;2022-12-07T00:46:02;18.41;52.05
74792;SHT30;63319;46.046;17.802;2022-12-07T00:49:05;18.41;51.84
74792;SHT30;63319;46.046;17.802;2022-12-07T00:52:08;18.39;51.99
74792;SHT30;63319;46.046;17.802;2022-12-07T00:55:11;18.39;51.46
74792;SHT30;63319;46.046;17.802;2022-12-07T00:58:14;18.38;51.18
74792;SHT30;63319;46.046;17.802;2022-12-07T01:01:17;18.38;52.05
74792;SHT30;63319;46.046;17.802;2022-12-07T01:04:19;18.39;51.83
74792;SHT30;63319;46.046;17.802;2022-12-07T01:07:22;18.39;51.87
74792;SHT30;63319;46.046;17.802;2022-12-07T01:10:25;18.41;51.73
74792;SHT30;63319;46.046;17.802;2022-12-07T01:13:28;18.39;52.17
74792;SHT30;63319;46.046;17.802;2022-12-07T01:16:32;18.39;51.53
74792;SHT30;63319;46.046;17.802;2022-12-07T01:19:35;18.38;52.14
74792;SHT30;63319;46.046;17.802;2022-12-07T01:22:39;18.41;51.46
74792;SHT30;63319;46.046;17.802;2022-12-07T01:25:42;18.38;51.52
74792;SHT30;63319;46.046;17.802;2022-12-07T01:28:45;18.38;51.70
74792;SHT30;63319;46.046;17.802;2022-12-07T01:31:49;18.38;51.86
74792;SHT30;63319;46.046;17.802;2022-12-07T01:34:51;18.39;51.67
74792;SHT30;63319;46.046;17.802;2022-12-07T01:37:54;18.34;51.81
74792;SHT30;63319;46.046;17.802;2022-12-07T01:40:58;18.35;51.99
74792;SHT30;63319;46.046;17.802;2022-12-07T01:44:29;18.37;51.13
74792;SHT30;63319;46.046;17.802;2022-12-07T01:47:35;18.34;51.67
74792;SHT30;63319;46.046;17.802;2022-12-07T01:50:38;18.35;51.35
74792;SHT30;63319;46.046;17.802;2022-12-07T01:53:43;18.37;51.64
74792;SHT30;63319;46.046;17.802;2022-12-07T01:56:51;18.35;51.76
74792;SHT30;63319;46.046;17.802;2022-12-07T02:00:00;18.35;51.77
74792;SHT30;63319;46.046;17.802;2022-12-07T02:03:25;18.37;51.94
74792;SHT30;63319;46.046;17.802;2022-12-07T02:06:30;18.37;51.68
74792;SHT30;63319;46.046;17.802;2022-12-07T02:09:32;18.37;51.55
74792;SHT30;63319;46.046;17.802;2022-12-07T02:12:35;18.38;51.64
74792;SHT30;63319;46.046;17.802;2022-12-07T02:28:29;18.32;51.58
74792;SHT30;63319;46.046;17.802;2022-12-07T02:31:36;18.32;51.49
74792;SHT30;63319;46.046;17.802;2022-12-07T02:34:49;18.31;51.79
74792;SHT30;63319;46.046;17.802;2022-12-07T02:41:26;18.28;51.58
74792;SHT30;63319;46.046;17.802;2022-12-07T02:44:31;18.28;51.60
74792;SHT30;63319;46.046;17.802;2022-12-07T02:47:35;18.28;51.78
74792;SHT30;63319;46.046;17.802;2022-12-07T02:50:39;18.28;51.69
74792;SHT30;63319;46.046;17.802;2022-12-07T02:53:43;18.28;51.43
74792;SHT30;63319;46.046;17.802;2022-12-07T02:57:03;18.28;50.96
74792;SHT30;63319;46.046;17.802;2022-12-07T03:00:15;18.27;50.97
74792;SHT30;63319;46.046;17.802;2022-12-07T03:03:18;18.27;51.37
74792;SHT30;63319;46.046;17.802;2022-12-07T03:06:31;18.24;51.16
74792;SHT30;63319;46.046;17.802;2022-12-07T03:09:53;18.22;51.16
74792;SHT30;63319;46.046;17.802;2022-12-07T03:13:07;18.25;51.67
74792;SHT30;63319;46.046;17.802;2022-12-07T03:16:25;18.22;51.62
74792;SHT30;63319;46.046;17.802;2022-12-07T03:19:30;18.21;50.89
74792;SHT30;63319;46.046;17.802;2022-12-07T03:22:35;18.21;51.50
74792;SHT30;63319;46.046;17.802;2022-12-07T03:25:49;18.19;51.80
74792;SHT30;63319;46.046;17.802;2022-12-07T03:29:05;18.21;51.45
74792;SHT30;63319;46.046;17.802;2022-12-07T03:32:40;18.21;51.77
74792;SHT30;63319;46.046;17.802;2022-12-07T03:35:51;18.21;51.11
74792;SHT30;63319;46.046;17.802;2022-12-07T03:39:03;18.21;51.16
74792;SHT30;63319;46.046;17.802;2022-12-07T03:42:08;18.17;51.24
74792;SHT30;63319;46.046;17.802;2022-12-07T03:45:13;18.18;50.99
74792;SHT30;63319;46.046;17.802;2022-12-07T03:51:45;18.18;51.74
74792;SHT30;63319;46.046;17.802;2022-12-07T03:57:58;18.18;51.39
74792;SHT30;63319;46.046;17.802;2022-12-07T04:01:02;18.15;51.29
74792;SHT30;63319;46.046;17.802;2022-12-07T04:04:05;18.15;51.33
74792;SHT30;63319;46.046;17.802;2022-12-07T04:07:07;18.14;51.31
74792;SHT30;63319;46.046;17.802;2022-12-07T04:10:10;18.15;51.34
74792;SHT30;63319;46.046;17.802;2022-12-07T04:13:13;18.15;51.57
74792;SHT30;63319;46.046;17.802;2022-12-07T04:16:16;18.18;51.23
74792;SHT30;63319;46.046;17.802;2022-12-07T04:19:21;18.15;51.83
74792;SHT30;63319;46.046;17.802;2022-12-07T04:22:25;18.18;51.70
74792;SHT30;63319;46.046;17.802;2022-12-07T04:25:27;18.15;51.81
74792;SHT30;63319;46.046;17.802;2022-12-07T04:28:40;18.17;51.84
74792;SHT30;63319;46.046;17.802;2022-12-07T04:31:43;18.19;51.46
74792;SHT30;63319;46.046;17.802;2022-12-07T04:34:46;18.17;51.53
74792;SHT30;63319;46.046;17.802;2022-12-07T04:37:56;18.17;51.49
74792;SHT30;63319;46.046;17.802;2022-12-07T04:41:07;18.18;51.52
74792;SHT30;63319;46.046;17.802;2022-12-07T04:44:12;18.17;51.43
74792;SHT30;63319;46.046;17.802;2022-12-07T04:47:16;18.17;51.37
74792;SHT30;63319;46.046;17.802;2022-12-07T04:50:19;18.15;51.39
74792;SHT30;63319;46.046;17.802;2022-12-07T04:53:22;18.14;50.74
74792;SHT30;63319;46.046;17.802;2022-12-07T04:56:25;18.14;50.43
74792;SHT30;63319;46.046;17.802;2022-12-07T04:59:28;18.08;50.43
74792;SHT30;63319;46.046;17.802;2022-12-07T05:02:31;18.10;51.64
74792;SHT30;63319;46.046;17.802;2022-12-07T05:05:34;18.08;51.30
74792;SHT30;63319;46.046;17.802;2022-12-07T05:08:38;18.10;51.39
74792;SHT30;63319;46.046;17.802;2022-12-07T05:11:41;18.10;50.61
74792;SHT30;63319;46.046;17.802;2022-12-07T05:14:44;18.08;51.46
74792;SHT30;63319;46.046;17.802;2022-12-07T05:17:46;18.12;51.24
74792;SHT30;63319;46.046;17.802;2022-12-07T05:20:49;18.10;51.39
74792;SHT30;63319;46.046;17.802;2022-12-07T05:23:53;18.12;51.18
74792;SHT30;63319;46.046;17.802;2022-12-07T05:26:56;18.12;51.33
74792;SHT30;63319;46.046;17.802;2022-12-07T05:29:59;18.12;51.03
74792;SHT30;63319;46.046;17.802;2022-12-07T05:33:02;18.14;51.06
74792;SHT30;63319;46.046;17.802;2022-12-07T05:36:06;18.14;51.23
74792;SHT30;63319;46.046;17.802;2022-12-07T05:39:10;18.17;51.29
74792;SHT30;63319;46.046;17.802;2022-12-07T05:42:12;18.15;51.17
74792;SHT30;63319;46.046;17.802;2022-12-07T05:45:15;18.15;51.15
74792;SHT30;63319;46.046;17.802;2022-12-07T05:48:18;18.17;50.97
74792;SHT30;63319;46.046;17.802;2022-12-07T05:51:21;18.18;50.93
74792;SHT30;63319;46.046;17.802;2022-12-07T05:54:24;18.17;51.15
74792;SHT30;63319;46.046;17.802;2022-12-07T05:57:26;18.15;51.21
74792;SHT30;63319;46.046;17.802;2022-12-07T06:00:30;18.17;51.58
74792;SHT30;63319;46.046;17.802;2022-12-07T06:03:33;18.17;51.59
74792;SHT30;63319;46.046;17.802;2022-12-07T06:06:36;18.17;51.61
74792;SHT30;63319;46.046;17.802;2022-12-07T06:09:39;18.17;51.92
74792;SHT30;63319;46.046;17.802;2022-12-07T06:12:42;18.21;51.69
74792;SHT30;63319;46.046;17.802;2022-12-07T06:15:47;18.22;51.75
74792;SHT30;63319;46.046;17.802;2022-12-07T06:18:49;18.22;51.15
74792;SHT30;63319;46.046;17.802;2022-12-07T06:21:52;18.22;51.40
74792;SHT30;63319;46.046;17.802;2022-12-07T06:24:55;18.24;51.31
74792;SHT30;63319;46.046;17.802;2022-12-07T06:27:58;18.22;51.30
74792;SHT30;63319;46.046;17.802;2022-12-07T06:31:02;18.24;51.13
74792;SHT30;63319;46.046;17.802;2022-12-07T06:34:08;18.22;51.43
74792;SHT30;63319;46.046;17.802;2022-12-07T06:37:11;18.24;50.98
74792;SHT30;63319;46.046;17.802;2022-12-07T06:40:14;18.24;51.78
74792;SHT30;63319;46.046;17.802;2022-12-07T06:43:16;18.21;51.51
74792;SHT30;63319;46.046;17.802;2022-12-07T06:46:19;18.25;51.87
74792;SHT30;63319;46.046;17.802;2022-12-07T06:49:22;18.24;51.86
74792;SHT30;63319;46.046;17.802;2022-12-07T06:52:25;18.27;52.25
74792;SHT30;63319;46.046;17.802;2022-12-07T06:55:34;18.28;52.35
74792;SHT30;63319;46.046;17.802;2022-12-07T06:58:37;18.28;52.64
74792;SHT30;63319;46.046;17.802;2022-12-07T07:01:40;18.32;51.76
74792;SHT30;63319;46.046;17.802;2022-12-07T07:04:42;18.34;52.12
74792;SHT30;63319;46.046;17.802;2022-12-07T07:07:45;18.37;51.67
74792;SHT30;63319;46.046;17.802;2022-12-07T07:11:09;18.37;51.33
74792;SHT30;63319;46.046;17.802;2022-12-07T07:14:12;18.39;51.94
74792;SHT30;63319;46.046;17.802;2022-12-07T07:17:15;18.37;52.51
74792;SHT30;63319;46.046;17.802;2022-12-07T07:20:18;18.41;52.49
74792;SHT30;63319;46.046;17.802;2022-12-07T07:23:21;18.46;52.37
74792;SHT30;63319;46.046;17.802;2022-12-07T07:26:23;18.56;52.21
74792;SHT30;63319;46.046;17.802;2022-12-07T07:29:27;18.55;53.79
74792;SHT30;63319;46.046;17.802;2022-12-07T07:32:29;18.66;53.27
74792;SHT30;63319;46.046;17.802;2022-12-07T07:35:33;18.80;54.12
74792;SHT30;63319;46.046;17.802;2022-12-07T07:38:37;18.85;54.01
74792;SHT30;63319;46.046;17.802;2022-12-07T07:41:39;18.96;54.95
74792;SHT30;63319;46.046;17.802;2022-12-07T07:44:47;19.07;54.91
74792;SHT30;63319;46.046;17.802;2022-12-07T07:47:51;19.17;54.89
74792;SHT30;63319;46.046;17.802;2022-12-07T07:50:53;19.18;54.84
74792;SHT30;63319;46.046;17.802;2022-12-07T07:53:56;19.25;53.94
74792;SHT30;63319;46.046;17.802;2022-12-07T07:56:59;19.34;54.84
74792;SHT30;63319;46.046;17.802;2022-12-07T08:00:05;19.42;54.68
74792;SHT30;63319;46.046;17.802;2022-12-07T08:03:13;19.51;54.44
74792;SHT30;63319;46.046;17.802;2022-12-07T08:06:16;19.55;54.16
74792;SHT30;63319;46.046;17.802;2022-12-07T08:09:19;19.65;54.09
74792;SHT30;63319;46.046;17.802;2022-12-07T08:12:22;19.75;53.88
74792;SHT30;63319;46.046;17.802;2022-12-07T08:15:29;19.86;53.76
74792;SHT30;63319;46.046;17.802;2022-12-07T08:18:35;19.96;53.67
74792;SHT30;63319;46.046;17.802;2022-12-07T08:21:39;20.05;53.61
74792;SHT30;63319;46.046;17.802;2022-12-07T08:24:41;20.14;53.28
74792;SHT30;63319;46.046;17.802;2022-12-07T08:27:44;20.27;52.98
74792;SHT30;63319;46.046;17.802;2022-12-07T08:30:47;20.37;52.80
74792;SHT30;63319;46.046;17.802;2022-12-07T08:33:50;20.45;52.25
74792;SHT30;63319;46.046;17.802;2022-12-07T08:36:54;20.51;52.37
74792;SHT30;63319;46.046;17.802;2022-12-07T08:39:56;20.57;51.81
74792;SHT30;63319;46.046;17.802;2022-12-07T08:42:59;20.67;52.23
74792;SHT30;63319;46.046;17.802;2022-12-07T08:46:24;20.78;51.81
74792;SHT30;63319;46.046;17.802;2022-12-07T08:49:39;20.87;51.84
74792;SHT30;63319;46.046;17.802;2022-12-07T08:52:43;20.92;51.61
74792;SHT30;63319;46.046;17.802;2022-12-07T08:55:46;20.98;51.50
74792;SHT30;63319;46.046;17.802;2022-12-07T08:58:50;21.06;51.46
74792;SHT30;63319;46.046;17.802;2022-12-07T09:01:53;21.10;51.45
74792;SHT30;63319;46.046;17.802;2022-12-07T09:04:56;21.15;51.15
74792;SHT30;63319;46.046;17.802;2022-12-07T09:08:00;21.20;51.09
74792;SHT30;63319;46.046;17.802;2022-12-07T09:11:03;21.23;50.99
74792;SHT30;63319;46.046;17.802;2022-12-07T09:14:06;21.29;50.71
74792;SHT30;63319;46.046;17.802;2022-12-07T09:17:14;21.36;50.79
74792;SHT30;63319;46.046;17.802;2022-12-07T09:20:19;21.44;50.93
74792;SHT30;63319;46.046;17.802;2022-12-07T09:23:29;21.46;50.85
74792;SHT30;63319;46.046;17.802;2022-12-07T09:26:31;21.47;50.83
74792;SHT30;63319;46.046;17.802;2022-12-07T09:29:34;21.50;50.95
74792;SHT30;63319;46.046;17.802;2022-12-07T09:32:38;21.60;51.01
74792;SHT30;63319;46.046;17.802;2022-12-07T09:35:45;21.73;50.96
74792;SHT30;63319;46.046;17.802;2022-12-07T09:38:48;21.75;51.02
74792;SHT30;63319;46.046;17.802;2022-12-07T09:41:51;21.80;51.12
74792;SHT30;63319;46.046;17.802;2022-12-07T09:44:54;21.80;51.24
74792;SHT30;63319;46.046;17.802;2022-12-07T09:48:02;21.83;51.26
74792;SHT30;63319;46.046;17.802;2022-12-07T09:51:24;21.84;51.28
74792;SHT30;63319;46.046;17.802;2022-12-07T09:54:28;21.87;51.22
74792;SHT30;63319;46.046;17.802;2022-12-07T09:57:32;21.91;51.20
74792;SHT30;63319;46.046;17.802;2022-12-07T10:00:37;21.92;50.96
74792;SHT30;63319;46.046;17.802;2022-12-07T10:03:45;21.95;50.71
74792;SHT30;63319;46.046;17.802;2022-12-07T10:06:50;21.92;50.62
74792;SHT30;63319;46.046;17.802;2022-12-07T10:09:53;21.94;50.42
74792;SHT30;63319;46.046;17.802;2022-12-07T10:13:05;21.95;50.18
74792;SHT30;63319;46.046;17.802;2022-12-07T10:19:32;22.08;49.53
74792;SHT30;63319;46.046;17.802;2022-12-07T10:22:35;22.28;49.08
74792;SHT30;63319;46.046;17.802;2022-12-07T10:25:42;22.46;48.40
74792;SHT30;63319;46.046;17.802;2022-12-07T10:28:46;22.59;48.12
74792;SHT30;63319;46.046;17.802;2022-12-07T10:31:56;22.59;47.98
74792;SHT30;63319;46.046;17.802;2022-12-07T10:35:23;22.62;47.86
74792;SHT30;63319;46.046;17.802;2022-12-07T10:38:28;22.66;47.71
74792;SHT30;63319;46.046;17.802;2022-12-07T10:41:32;22.74;47.39
74792;SHT30;63319;46.046;17.802;2022-12-07T10:44:35;22.80;47.28
74792;SHT30;63319;46.046;17.802;2022-12-07T10:48:03;22.91;46.91
74792;SHT30;63319;46.046;17.802;2022-12-07T10:51:45;23.14;46.45
74792;SHT30;63319;46.046;17.802;2022-12-07T10:58:14;22.89;46.69
74792;SHT30;63319;46.046;17.802;2022-12-07T11:04:48;22.67;46.93
74792;SHT30;63319;46.046;17.802;2022-12-07T11:08:57;22.57;46.96
74792;SHT30;63319;46.046;17.802;2022-12-07T11:22:44;22.46;46.96
74792;SHT30;63319;46.046;17.802;2022-12-07T11:26:43;22.46;46.86
74792;SHT30;63319;46.046;17.802;2022-12-07T11:33:14;22.42;46.72
74792;SHT30;63319;46.046;17.802;2022-12-07T11:36:38;22.46;46.52
74792;SHT30;63319;46.046;17.802;2022-12-07T11:39:51;22.52;46.37
74792;SHT30;63319;46.046;17.802;2022-12-07T11:43:02;22.50;46.44
74792;SHT30;63319;46.046;17.802;2022-12-07T11:46:12;22.45;46.49
74792;SHT30;63319;46.046;17.802;2022-12-07T11:49:47;22.55;46.46
74792;SHT30;63319;46.046;17.802;2022-12-07T11:52:58;22.63;46.38
74792;SHT30;63319;46.046;17.802;2022-12-07T11:56:09;22.53;46.65
74792;SHT30;63319;46.046;17.802;2022-12-07T11:59:25;22.50;46.91
74792;SHT30;63319;46.046;17.802;2022-12-07T12:02:39;22.50;47.09
74792;SHT30;63319;46.046;17.802;2022-12-07T12:05:44;22.50;47.20
74792;SHT30;63319;46.046;17.802;2022-12-07T12:19:40;22.52;47.43
74792;SHT30;63319;46.046;17.802;2022-12-07T12:23:09;22.46;47.63
74792;SHT30;63319;46.046;17.802;2022-12-07T12:26:18;22.45;47.77
74792;SHT30;63319;46.046;17.802;2022-12-07T12:29:31;22.42;47.94
74792;SHT30;63319;46.046;17.802;2022-12-07T12:32:40;22.35;48.16
74792;SHT30;63319;46.046;17.802;2022-12-07T12:35:44;22.35;48.41
74792;SHT30;63319;46.046;17.802;2022-12-07T12:42:18;22.31;48.72
74792;SHT30;63319;46.046;17.802;2022-12-07T12:45:26;22.29;48.75
74792;SHT30;63319;46.046;17.802;2022-12-07T12:48:39;22.26;48.91
74792;SHT30;63319;46.046;17.802;2022-12-07T12:52:01;22.29;48.97
74792;SHT30;63319;46.046;17.802;2022-12-07T13:01:39;22.67;48.51
74792;SHT30;63319;46.046;17.802;2022-12-07T13:04:53;22.53;48.82
74792;SHT30;63319;46.046;17.802;2022-12-07T13:08:29;22.48;49.16
74792;SHT30;63319;46.046;17.802;2022-12-07T13:11:44;22.49;48.71
74792;SHT30;63319;46.046;17.802;2022-12-07T13:14:56;22.42;49.15
74792;SHT30;63319;46.046;17.802;2022-12-07T13:18:01;22.38;49.22
74792;SHT30;63319;46.046;17.802;2022-12-07T13:24:12;22.31;49.28
74792;SHT30;63319;46.046;17.802;2022-12-07T13:27:15;22.28;49.25
74792;SHT30;63319;46.046;17.802;2022-12-07T13:30:21;22.26;49.16
74792;SHT30;63319;46.046;17.802;2022-12-07T13:33:27;22.21;49.03
74792;SHT30;63319;46.046;17.802;2022-12-07T13:36:33;22.18;48.94
74792;SHT30;63319;46.046;17.802;2022-12-07T13:39:50;22.15;48.74
74792;SHT30;63319;46.046;17.802;2022-12-07T13:42:57;22.11;48.55
74792;SHT30;63319;46.046;17.802;2022-12-07T13:46:01;22.06;48.54
74792;SHT30;63319;46.046;17.802;2022-12-07T13:49:19;22.01;48.43
74792;SHT30;63319;46.046;17.802;2022-12-07T13:52:30;21.97;48.08
74792;SHT30;63319;46.046;17.802;2022-12-07T13:55:33;21.85;54.59
74792;SHT30;63319;46.046;17.802;2022-12-07T13:58:36;21.78;49.23
74792;SHT30;63319;46.046;17.802;2022-12-07T14:01:39;21.70;48.42
74792;SHT30;63319;46.046;17.802;2022-12-07T14:04:42;21.65;49.16
74792;SHT30;63319;46.046;17.802;2022-12-07T14:07:57;21.63;50.64
74792;SHT30;63319;46.046;17.802;2022-12-07T14:11:00;21.61;51.33
74792;SHT30;63319;46.046;17.802;2022-12-07T14:14:04;21.58;51.95
74792;SHT30;63319;46.046;17.802;2022-12-07T14:17:18;21.58;52.61
74792;SHT30;63319;46.046;17.802;2022-12-07T14:20:48;21.53;52.66
74792;SHT30;63319;46.046;17.802;2022-12-07T14:27:22;21.47;52.84
74792;SHT30;63319;46.046;17.802;2022-12-07T14:30:30;21.43;52.92
74792;SHT30;63319;46.046;17.802;2022-12-07T14:33:34;21.39;53.46
74792;SHT30;63319;46.046;17.802;2022-12-07T14:36:36;21.37;53.49
74792;SHT30;63319;46.046;17.802;2022-12-07T14:39:39;21.35;53.35
74792;SHT30;63319;46.046;17.802;2022-12-07T14:42:54;21.29;53.18
74792;SHT30;63319;46.046;17.802;2022-12-07T14:46:00;21.25;52.66
74792;SHT30;63319;46.046;17.802;2022-12-07T14:49:06;21.22;52.93
74792;SHT30;63319;46.046;17.802;2022-12-07T14:52:30;21.18;52.85
74792;SHT30;63319;46.046;17.802;2022-12-07T14:55:52;21.15;52.85
74792;SHT30;63319;46.046;17.802;2022-12-07T14:58:55;21.08;53.28
74792;SHT30;63319;46.046;17.802;2022-12-07T15:01:58;21.05;52.81
74792;SHT30;63319;46.046;17.802;2022-12-07T15:05:01;21.05;52.67
74792;SHT30;63319;46.046;17.802;2022-12-07T15:08:04;21.00;52.93
74792;SHT30;63319;46.046;17.802;2022-12-07T15:11:12;20.95;52.60
74792;SHT30;63319;46.046;17.802;2022-12-07T15:14:15;20.92;52.86
74792;SHT30;63319;46.046;17.802;2022-12-07T15:17:18;20.89;53.08
74792;SHT30;63319;46.046;17.802;2022-12-07T15:20:33;20.87;52.46
74792;SHT30;63319;46.046;17.802;2022-12-07T15:23:36;20.84;53.09
74792;SHT30;63319;46.046;17.802;2022-12-07T15:30:01;20.79;53.08
74792;SHT30;63319;46.046;17.802;2022-12-07T15:33:04;20.75;53.29
74792;SHT30;63319;46.046;17.802;2022-12-07T15:36:07;20.69;52.25
74792;SHT30;63319;46.046;17.802;2022-12-07T15:39:11;20.71;52.73
74792;SHT30;63319;46.046;17.802;2022-12-07T15:42:35;20.67;52.77
74792;SHT30;63319;46.046;17.802;2022-12-07T15:45:38;20.65;53.12
74792;SHT30;63319;46.046;17.802;2022-12-07T15:48:41;20.60;53.11
74792;SHT30;63319;46.046;17.802;2022-12-07T15:51:45;20.60;53.10
74792;SHT30;63319;46.046;17.802;2022-12-07T15:54:47;20.58;53.29
74792;SHT30;63319;46.046;17.802;2022-12-07T15:57:50;20.55;53.22
74792;SHT30;63319;46.046;17.802;2022-12-07T16:00:53;20.55;52.96
74792;SHT30;63319;46.046;17.802;2022-12-07T16:03:57;20.54;53.07
74792;SHT30;63319;46.046;17.802;2022-12-07T16:07:00;20.48;53.35
74792;SHT30;63319;46.046;17.802;2022-12-07T16:10:03;20.50;53.11
74792;SHT30;63319;46.046;17.802;2022-12-07T16:13:06;20.45;53.15
74792;SHT30;63319;46.046;17.802;2022-12-07T16:16:14;20.44;53.14
74792;SHT30;63319;46.046;17.802;2022-12-07T16:19:17;20.44;53.01
74792;SHT30;63319;46.046;17.802;2022-12-07T16:22:20;20.41;53.42
74792;SHT30;63319;46.046;17.802;2022-12-07T16:25:22;20.43;53.23
74792;SHT30;63319;46.046;17.802;2022-12-07T16:28:25;20.40;52.94
74792;SHT30;63319;46.046;17.802;2022-12-07T16:31:28;20.37;53.18
74792;SHT30;63319;46.046;17.802;2022-12-07T16:34:31;20.37;53.24
74792;SHT30;63319;46.046;17.802;2022-12-07T16:37:34;20.34;52.88
74792;SHT30;63319;46.046;17.802;2022-12-07T16:40:37;20.31;53.08
74792;SHT30;63319;46.046;17.802;2022-12-07T16:43:40;20.30;53.16
74792;SHT30;63319;46.046;17.802;2022-12-07T16:46:43;20.31;53.25
74792;SHT30;63319;46.046;17.802;2022-12-07T16:49:46;20.29;53.19
74792;SHT30;63319;46.046;17.802;2022-12-07T16:52:50;20.27;53.23
74792;SHT30;63319;46.046;17.802;2022-12-07T16:55:52;20.29;53.08
74792;SHT30;63319;46.046;17.802;2022-12-07T16:58:58;20.27;53.24
74792;SHT30;63319;46.046;17.802;2022-12-07T17:02:02;20.27;53.13
74792;SHT30;63319;46.046;17.802;2022-12-07T17:05:06;20.24;53.12
74792;SHT30;63319;46.046;17.802;2022-12-07T17:08:10;20.21;53.00
74792;SHT30;63319;46.046;17.802;2022-12-07T17:11:20;20.20;53.22
74792;SHT30;63319;46.046;17.802;2022-12-07T17:14:23;20.20;52.98
74792;SHT30;63319;46.046;17.802;2022-12-07T17:17:46;20.19;53.28
74792;SHT30;63319;46.046;17.802;2022-12-07T17:20:49;20.20;53.09
74792;SHT30;63319;46.046;17.802;2022-12-07T17:23:52;20.17;52.95
74792;SHT30;63319;46.046;17.802;2022-12-07T17:26:55;20.16;52.96
74792;SHT30;63319;46.046;17.802;2022-12-07T17:29:58;20.14;53.48
74792;SHT30;63319;46.046;17.802;2022-12-07T17:33:01;20.14;52.98
74792;SHT30;63319;46.046;17.802;2022-12-07T17:36:30;20.14;53.10
74792;SHT30;63319;46.046;17.802;2022-12-07T17:39:34;20.13;53.40
74792;SHT30;63319;46.046;17.802;2022-12-07T17:42:37;20.12;52.80
74792;SHT30;63319;46.046;17.802;2022-12-07T17:45:42;20.10;52.69
74792;SHT30;63319;46.046;17.802;2022-12-07T17:48:45;20.09;53.02
74792;SHT30;63319;46.046;17.802;2022-12-07T17:51:48;20.08;52.85
74792;SHT30;63319;46.046;17.802;2022-12-07T17:55:10;20.03;52.80
74792;SHT30;63319;46.046;17.802;2022-12-07T17:58:13;20.05;52.75
74792;SHT30;63319;46.046;17.802;2022-12-07T18:01:25;20.00;52.90
74792;SHT30;63319;46.046;17.802;2022-12-07T18:04:36;20.00;53.19
74792;SHT30;63319;46.046;17.802;2022-12-07T18:07:39;19.99;52.67
74792;SHT30;63319;46.046;17.802;2022-12-07T18:10:42;19.97;52.92
74792;SHT30;63319;46.046;17.802;2022-12-07T18:13:45;19.99;52.80
74792;SHT30;63319;46.046;17.802;2022-12-07T18:16:48;19.97;52.91
74792;SHT30;63319;46.046;17.802;2022-12-07T18:19:51;19.94;52.95
74792;SHT30;63319;46.046;17.802;2022-12-07T18:22:54;19.92;52.88
74792;SHT30;63319;46.046;17.802;2022-12-07T18:25:57;19.93;52.72
74792;SHT30;63319;46.046;17.802;2022-12-07T18:29:01;19.93;53.25
74792;SHT30;63319;46.046;17.802;2022-12-07T18:32:04;19.92;53.04
74792;SHT30;63319;46.046;17.802;2022-12-07T18:35:08;19.90;52.94
74792;SHT30;63319;46.046;17.802;2022-12-07T18:38:13;19.89;52.91
74792;SHT30;63319;46.046;17.802;2022-12-07T18:41:18;19.87;52.86
74792;SHT30;63319;46.046;17.802;2022-12-07T18:44:21;19.87;52.87
74792;SHT30;63319;46.046;17.802;2022-12-07T18:47:25;19.86;52.79
74792;SHT30;63319;46.046;17.802;2022-12-07T18:50:28;19.86;52.85
74792;SHT30;63319;46.046;17.802;2022-12-07T18:53:33;19.83;52.66
74792;SHT30;63319;46.046;17.802;2022-12-07T18:56:36;19.82;53.06
74792;SHT30;63319;46.046;17.802;2022-12-07T18:59:39;19.82;52.56
74792;SHT30;63319;46.046;17.802;2022-12-07T19:02:49;19.82;52.78
74792;SHT30;63319;46.046;17.802;2022-12-07T19:05:53;19.82;52.66
74792;SHT30;63319;46.046;17.802;2022-12-07T19:09:00;19.78;52.59
74792;SHT30;63319;46.046;17.802;2022-12-07T19:12:04;19.78;53.08
74792;SHT30;63319;46.046;17.802;2022-12-07T19:15:09;19.78;52.78
74792;SHT30;63319;46.046;17.802;2022-12-07T19:18:15;19.75;52.67
74792;SHT30;63319;46.046;17.802;2022-12-07T19:21:18;19.76;52.24
74792;SHT30;63319;46.046;17.802;2022-12-07T19:24:22;19.76;52.83
74792;SHT30;63319;46.046;17.802;2022-12-07T19:27:25;19.76;52.97
74792;SHT30;63319;46.046;17.802;2022-12-07T19:30:30;19.75;52.59
74792;SHT30;63319;46.046;17.802;2022-12-07T19:33:33;19.76;52.96
74792;SHT30;63319;46.046;17.802;2022-12-07T19:36:38;19.75;52.80
74792;SHT30;63319;46.046;17.802;2022-12-07T19:39:44;19.75;52.62
74792;SHT30;63319;46.046;17.802;2022-12-07T19:42:49;19.73;52.25
74792;SHT30;63319;46.046;17.802;2022-12-07T19:45:52;19.72;52.64
74792;SHT30;63319;46.046;17.802;2022-12-07T19:48:58;19.72;52.59
74792;SHT30;63319;46.046;17.802;2022-12-07T19:52:22;19.71;52.73
74792;SHT30;63319;46.046;17.802;2022-12-07T19:55:25;19.72;52.85
74792;SHT30;63319;46.046;17.802;2022-12-07T19:58:29;19.68;52.49
74792;SHT30;63319;46.046;17.802;2022-12-07T20:01:33;19.68;52.64
74792;SHT30;63319;46.046;17.802;2022-12-07T20:04:40;19.68;52.51
74792;SHT30;63319;46.046;17.802;2022-12-07T20:07:43;19.65;52.36
74792;SHT30;63319;46.046;17.802;2022-12-07T20:10:48;19.68;52.59
74792;SHT30;63319;46.046;17.802;2022-12-07T20:13:53;19.68;52.61
74792;SHT30;63319;46.046;17.802;2022-12-07T20:16:58;19.65;52.19
74792;SHT30;63319;46.046;17.802;2022-12-07T20:20:01;19.65;52.42
74792;SHT30;63319;46.046;17.802;2022-12-07T20:23:05;19.65;52.68
74792;SHT30;63319;46.046;17.802;2022-12-07T20:26:11;19.65;52.47
74792;SHT30;63319;46.046;17.802;2022-12-07T20:29:16;19.66;52.13
74792;SHT30;63319;46.046;17.802;2022-12-07T20:32:22;19.65;52.18
74792;SHT30;63319;46.046;17.802;2022-12-07T20:35:28;19.65;52.48